sensor_id;sensor_type;location;lat;lon;timestamp;P1;durP1;ratioP1;P2;durP2;ratioP2
12654;SDS011;6392;44.644;11.448;2024-02-04T00:00:07;92.57;;;53.85;;
12654;SDS011;6392;44.644;11.448;2024-02-04T00:02:36;75.03;;;40.97;;
12654;SDS011;6392;44.644;11.448;2024-02-04T00:05:05;79.33;;;41.57;;
12654;SDS011;6392;44.644;11.448;2024-02-04T00:07:32;73.90;;;40.13;;
12654;SDS011;6392;44.644;11.448;2024-02-04T00:09:59;71.03;;;38.73;;
12654;SDS011;6392;44.644;11.448;2024-02-04T00:12:26;70.57;;;39.30;;
12654;SDS011;6392;44.644;11.448;2024-02-04T00:14:53;76.83;;;40.50;;
12654;SDS011;6392;44.644;11.448;2024-02-04T00:17:20;87.93;;;43.70;;
12654;SDS011;6392;44.644;11.448;2024-02-04T00:19:47;80.23;;;41.50;;
12654;SDS011;6392;44.644;11.448;2024-02-04T00:22:16;95.10;;;46.10;;
12654;SDS011;6392;44.644;11.448;2024-02-04T00:24:45;75.90;;;38.53;;
12654;SDS011;6392;44.644;11.448;2024-02-04T00:27:12;79.17;;;39.33;;
12654;SDS011;6392;44.644;11.448;2024-02-04T00:29:39;73.10;;;40.30;;
12654;SDS011;6392;44.644;11.448;2024-02-04T00:32:06;77.00;;;40.67;;
12654;SDS011;6392;44.644;11.448;2024-02-04T00:34:33;67.90;;;37.40;;
12654;SDS011;6392;44.644;11.448;2024-02-04T00:37:00;65.70;;;37.20;;
12654;SDS011;6392;44.644;11.448;2024-02-04T00:39:29;78.10;;;42.10;;
12654;SDS011;6392;44.644;11.448;2024-02-04T00:41:56;77.00;;;38.63;;
12654;SDS011;6392;44.644;11.448;2024-02-04T00:44:23;66.30;;;35.77;;
12654;SDS011;6392;44.644;11.448;2024-02-04T00:46:50;78.70;;;40.93;;
12654;SDS011;6392;44.644;11.448;2024-02-04T00:49:17;67.60;;;38.13;;
12654;SDS011;6392;44.644;11.448;2024-02-04T00:51:44;70.17;;;39.80;;
12654;SDS011;6392;44.644;11.448;2024-02-04T00:54:11;82.07;;;46.03;;
12654;SDS011;6392;44.644;11.448;2024-02-04T00:56:39;83.10;;;44.70;;
12654;SDS011;6392;44.644;11.448;2024-02-04T00:59:06;88.87;;;46.43;;
12654;SDS011;6392;44.644;11.448;2024-02-04T01:01:33;81.93;;;46.97;;
12654;SDS011;6392;44.644;11.448;2024-02-04T01:04:01;77.10;;;43.97;;
12654;SDS011;6392;44.644;11.448;2024-02-04T01:06:28;84.00;;;44.63;;
12654;SDS011;6392;44.644;11.448;2024-02-04T01:08:55;74.60;;;43.43;;
12654;SDS011;6392;44.644;11.448;2024-02-04T01:11:22;75.53;;;41.13;;
12654;SDS011;6392;44.644;11.448;2024-02-04T01:13:51;74.93;;;41.73;;
12654;SDS011;6392;44.644;11.448;2024-02-04T01:16:18;78.87;;;42.97;;
12654;SDS011;6392;44.644;11.448;2024-02-04T01:18:45;73.90;;;40.47;;
12654;SDS011;6392;44.644;11.448;2024-02-04T01:21:12;70.07;;;40.03;;
12654;SDS011;6392;44.644;11.448;2024-02-04T01:23:39;77.80;;;40.50;;
12654;SDS011;6392;44.644;11.448;2024-02-04T01:26:06;75.63;;;42.33;;
12654;SDS011;6392;44.644;11.448;2024-02-04T01:28:33;77.27;;;43.53;;
12654;SDS011;6392;44.644;11.448;2024-02-04T01:31:04;75.47;;;41.60;;
12654;SDS011;6392;44.644;11.448;2024-02-04T01:33:31;79.20;;;43.70;;
12654;SDS011;6392;44.644;11.448;2024-02-04T01:35:58;82.43;;;40.97;;
12654;SDS011;6392;44.644;11.448;2024-02-04T01:38:25;71.00;;;38.67;;
12654;SDS011;6392;44.644;11.448;2024-02-04T01:40:52;68.97;;;40.97;;
12654;SDS011;6392;44.644;11.448;2024-02-04T01:43:19;75.70;;;42.60;;
12654;SDS011;6392;44.644;11.448;2024-02-04T01:45:48;70.23;;;40.60;;
12654;SDS011;6392;44.644;11.448;2024-02-04T01:48:18;70.83;;;41.73;;
12654;SDS011;6392;44.644;11.448;2024-02-04T01:50:46;84.17;;;42.20;;
12654;SDS011;6392;44.644;11.448;2024-02-04T01:53:16;73.10;;;40.70;;
12654;SDS011;6392;44.644;11.448;2024-02-04T01:55:47;63.00;;;35.43;;
12654;SDS011;6392;44.644;11.448;2024-02-04T01:58:15;55.17;;;31.47;;
12654;SDS011;6392;44.644;11.448;2024-02-04T02:00:42;61.67;;;33.97;;
12654;SDS011;6392;44.644;11.448;2024-02-04T02:03:11;63.20;;;34.00;;
12654;SDS011;6392;44.644;11.448;2024-02-04T02:05:40;59.93;;;33.87;;
12654;SDS011;6392;44.644;11.448;2024-02-04T02:08:08;54.53;;;32.20;;
12654;SDS011;6392;44.644;11.448;2024-02-04T02:10:36;50.97;;;30.57;;
12654;SDS011;6392;44.644;11.448;2024-02-04T02:13:06;51.20;;;29.87;;
12654;SDS011;6392;44.644;11.448;2024-02-04T02:15:39;55.57;;;32.43;;
12654;SDS011;6392;44.644;11.448;2024-02-04T02:18:10;55.97;;;32.33;;
12654;SDS011;6392;44.644;11.448;2024-02-04T02:20:45;61.27;;;33.30;;
12654;SDS011;6392;44.644;11.448;2024-02-04T02:23:28;60.87;;;33.63;;
12654;SDS011;6392;44.644;11.448;2024-02-04T02:25:58;64.30;;;35.10;;
12654;SDS011;6392;44.644;11.448;2024-02-04T02:28:26;55.73;;;32.73;;
12654;SDS011;6392;44.644;11.448;2024-02-04T02:30:53;60.90;;;33.77;;
12654;SDS011;6392;44.644;11.448;2024-02-04T02:33:20;56.93;;;34.53;;
12654;SDS011;6392;44.644;11.448;2024-02-04T02:35:49;57.97;;;34.83;;
12654;SDS011;6392;44.644;11.448;2024-02-04T02:38:25;60.63;;;34.47;;
12654;SDS011;6392;44.644;11.448;2024-02-04T02:40:59;61.33;;;33.07;;
12654;SDS011;6392;44.644;11.448;2024-02-04T02:43:30;62.73;;;34.00;;
12654;SDS011;6392;44.644;11.448;2024-02-04T02:45:59;63.13;;;35.40;;
12654;SDS011;6392;44.644;11.448;2024-02-04T02:48:26;55.67;;;32.77;;
12654;SDS011;6392;44.644;11.448;2024-02-04T02:50:54;57.37;;;33.13;;
12654;SDS011;6392;44.644;11.448;2024-02-04T02:53:21;51.30;;;31.70;;
12654;SDS011;6392;44.644;11.448;2024-02-04T02:55:48;64.10;;;34.47;;
12654;SDS011;6392;44.644;11.448;2024-02-04T02:58:19;67.73;;;37.20;;
12654;SDS011;6392;44.644;11.448;2024-02-04T03:00:47;66.83;;;35.93;;
12654;SDS011;6392;44.644;11.448;2024-02-04T03:03:14;66.00;;;35.73;;
12654;SDS011;6392;44.644;11.448;2024-02-04T03:05:41;61.13;;;33.90;;
12654;SDS011;6392;44.644;11.448;2024-02-04T03:08:08;58.67;;;34.67;;
12654;SDS011;6392;44.644;11.448;2024-02-04T03:10:35;60.30;;;33.27;;
12654;SDS011;6392;44.644;11.448;2024-02-04T03:13:02;59.93;;;34.37;;
12654;SDS011;6392;44.644;11.448;2024-02-04T03:15:32;56.60;;;33.40;;
12654;SDS011;6392;44.644;11.448;2024-02-04T03:17:59;57.93;;;33.07;;
12654;SDS011;6392;44.644;11.448;2024-02-04T03:20:26;57.93;;;34.63;;
12654;SDS011;6392;44.644;11.448;2024-02-04T03:22:54;53.87;;;33.07;;
12654;SDS011;6392;44.644;11.448;2024-02-04T03:25:21;60.27;;;34.60;;
12654;SDS011;6392;44.644;11.448;2024-02-04T03:27:51;60.47;;;32.83;;
12654;SDS011;6392;44.644;11.448;2024-02-04T03:30:19;57.20;;;33.93;;
12654;SDS011;6392;44.644;11.448;2024-02-04T03:32:47;57.30;;;32.23;;
12654;SDS011;6392;44.644;11.448;2024-02-04T03:35:14;57.33;;;31.93;;
12654;SDS011;6392;44.644;11.448;2024-02-04T03:37:41;52.93;;;32.43;;
12654;SDS011;6392;44.644;11.448;2024-02-04T03:40:09;56.90;;;33.17;;
12654;SDS011;6392;44.644;11.448;2024-02-04T03:42:37;55.47;;;32.73;;
12654;SDS011;6392;44.644;11.448;2024-02-04T03:45:05;60.13;;;33.60;;
12654;SDS011;6392;44.644;11.448;2024-02-04T03:47:33;57.60;;;33.07;;
12654;SDS011;6392;44.644;11.448;2024-02-04T03:50:02;56.97;;;33.40;;
12654;SDS011;6392;44.644;11.448;2024-02-04T03:52:30;57.70;;;33.33;;
12654;SDS011;6392;44.644;11.448;2024-02-04T03:54:57;53.00;;;32.97;;
12654;SDS011;6392;44.644;11.448;2024-02-04T03:57:25;51.90;;;32.73;;
12654;SDS011;6392;44.644;11.448;2024-02-04T03:59:52;60.50;;;36.67;;
12654;SDS011;6392;44.644;11.448;2024-02-04T04:02:19;72.13;;;39.50;;
12654;SDS011;6392;44.644;11.448;2024-02-04T04:04:46;85.40;;;43.93;;
12654;SDS011;6392;44.644;11.448;2024-02-04T04:07:15;73.47;;;39.83;;
12654;SDS011;6392;44.644;11.448;2024-02-04T04:09:42;58.57;;;35.13;;
12654;SDS011;6392;44.644;11.448;2024-02-04T04:12:09;51.43;;;31.17;;
12654;SDS011;6392;44.644;11.448;2024-02-04T04:14:36;53.03;;;30.37;;
12654;SDS011;6392;44.644;11.448;2024-02-04T04:17:03;50.87;;;31.60;;
12654;SDS011;6392;44.644;11.448;2024-02-04T04:19:30;54.40;;;34.20;;
12654;SDS011;6392;44.644;11.448;2024-02-04T04:21:58;49.13;;;28.83;;
12654;SDS011;6392;44.644;11.448;2024-02-04T04:24:27;52.60;;;32.07;;
12654;SDS011;6392;44.644;11.448;2024-02-04T04:26:54;48.67;;;30.00;;
12654;SDS011;6392;44.644;11.448;2024-02-04T04:29:22;51.07;;;29.60;;
12654;SDS011;6392;44.644;11.448;2024-02-04T04:31:49;47.40;;;29.30;;
12654;SDS011;6392;44.644;11.448;2024-02-04T04:34:17;65.43;;;33.33;;
12654;SDS011;6392;44.644;11.448;2024-02-04T04:36:44;51.23;;;29.50;;
12654;SDS011;6392;44.644;11.448;2024-02-04T04:39:12;51.70;;;31.20;;
12654;SDS011;6392;44.644;11.448;2024-02-04T04:41:43;54.27;;;27.93;;
12654;SDS011;6392;44.644;11.448;2024-02-04T04:44:10;40.67;;;25.47;;
12654;SDS011;6392;44.644;11.448;2024-02-04T04:46:37;48.90;;;29.97;;
12654;SDS011;6392;44.644;11.448;2024-02-04T04:49:05;55.57;;;29.90;;
12654;SDS011;6392;44.644;11.448;2024-02-04T04:51:32;41.93;;;27.97;;
12654;SDS011;6392;44.644;11.448;2024-02-04T04:53:59;42.37;;;27.50;;
12654;SDS011;6392;44.644;11.448;2024-02-04T04:56:26;39.87;;;24.53;;
12654;SDS011;6392;44.644;11.448;2024-02-04T04:58:55;45.77;;;25.53;;
12654;SDS011;6392;44.644;11.448;2024-02-04T05:01:22;42.50;;;27.77;;
12654;SDS011;6392;44.644;11.448;2024-02-04T05:03:49;36.97;;;26.23;;
12654;SDS011;6392;44.644;11.448;2024-02-04T05:06:16;38.37;;;26.70;;
12654;SDS011;6392;44.644;11.448;2024-02-04T05:08:43;39.17;;;26.63;;
12654;SDS011;6392;44.644;11.448;2024-02-04T05:11:10;37.27;;;26.00;;
12654;SDS011;6392;44.644;11.448;2024-02-04T05:13:38;36.63;;;25.83;;
12654;SDS011;6392;44.644;11.448;2024-02-04T05:16:07;36.87;;;26.60;;
12654;SDS011;6392;44.644;11.448;2024-02-04T05:18:34;44.70;;;28.27;;
12654;SDS011;6392;44.644;11.448;2024-02-04T05:21:01;45.73;;;27.63;;
12654;SDS011;6392;44.644;11.448;2024-02-04T05:23:28;35.00;;;24.80;;
12654;SDS011;6392;44.644;11.448;2024-02-04T05:25:55;40.47;;;27.03;;
12654;SDS011;6392;44.644;11.448;2024-02-04T05:28:22;41.23;;;28.63;;
12654;SDS011;6392;44.644;11.448;2024-02-04T05:30:49;44.40;;;30.07;;
12654;SDS011;6392;44.644;11.448;2024-02-04T05:33:18;44.50;;;29.60;;
12654;SDS011;6392;44.644;11.448;2024-02-04T05:35:45;40.07;;;27.13;;
12654;SDS011;6392;44.644;11.448;2024-02-04T05:38:12;43.83;;;29.80;;
12654;SDS011;6392;44.644;11.448;2024-02-04T05:40:39;50.77;;;32.63;;
12654;SDS011;6392;44.644;11.448;2024-02-04T05:43:06;51.20;;;33.27;;
12654;SDS011;6392;44.644;11.448;2024-02-04T05:45:35;50.37;;;31.17;;
12654;SDS011;6392;44.644;11.448;2024-02-04T05:48:04;46.17;;;28.57;;
12654;SDS011;6392;44.644;11.448;2024-02-04T05:50:33;44.23;;;29.07;;
12654;SDS011;6392;44.644;11.448;2024-02-04T05:53:00;48.30;;;28.80;;
12654;SDS011;6392;44.644;11.448;2024-02-04T05:55:27;43.30;;;29.43;;
12654;SDS011;6392;44.644;11.448;2024-02-04T05:57:54;43.13;;;28.60;;
12654;SDS011;6392;44.644;11.448;2024-02-04T06:00:21;41.90;;;27.47;;
12654;SDS011;6392;44.644;11.448;2024-02-04T06:02:49;48.30;;;27.60;;
12654;SDS011;6392;44.644;11.448;2024-02-04T06:05:16;42.33;;;26.73;;
12654;SDS011;6392;44.644;11.448;2024-02-04T06:07:44;45.27;;;25.63;;
12654;SDS011;6392;44.644;11.448;2024-02-04T06:10:11;39.30;;;24.37;;
12654;SDS011;6392;44.644;11.448;2024-02-04T06:12:39;42.77;;;28.03;;
12654;SDS011;6392;44.644;11.448;2024-02-04T06:15:11;45.50;;;28.57;;
12654;SDS011;6392;44.644;11.448;2024-02-04T06:17:39;38.23;;;26.60;;
12654;SDS011;6392;44.644;11.448;2024-02-04T06:20:07;40.77;;;27.20;;
12654;SDS011;6392;44.644;11.448;2024-02-04T06:22:34;47.33;;;26.83;;
12654;SDS011;6392;44.644;11.448;2024-02-04T06:25:03;43.90;;;26.07;;
12654;SDS011;6392;44.644;11.448;2024-02-04T06:27:31;43.10;;;27.43;;
12654;SDS011;6392;44.644;11.448;2024-02-04T06:29:58;37.63;;;26.43;;
12654;SDS011;6392;44.644;11.448;2024-02-04T06:32:25;42.77;;;27.17;;
12654;SDS011;6392;44.644;11.448;2024-02-04T06:34:52;44.97;;;29.43;;
12654;SDS011;6392;44.644;11.448;2024-02-04T06:37:20;47.73;;;28.63;;
12654;SDS011;6392;44.644;11.448;2024-02-04T06:39:47;42.63;;;28.97;;
12654;SDS011;6392;44.644;11.448;2024-02-04T06:42:16;44.97;;;28.03;;
12654;SDS011;6392;44.644;11.448;2024-02-04T06:44:43;41.43;;;28.07;;
12654;SDS011;6392;44.644;11.448;2024-02-04T06:47:11;46.40;;;28.83;;
12654;SDS011;6392;44.644;11.448;2024-02-04T06:49:39;44.43;;;29.40;;
12654;SDS011;6392;44.644;11.448;2024-02-04T06:52:06;50.90;;;28.63;;
12654;SDS011;6392;44.644;11.448;2024-02-04T06:54:33;50.03;;;30.27;;
12654;SDS011;6392;44.644;11.448;2024-02-04T06:57:00;50.33;;;30.90;;
12654;SDS011;6392;44.644;11.448;2024-02-04T06:59:28;55.10;;;32.03;;
12654;SDS011;6392;44.644;11.448;2024-02-04T07:01:55;56.40;;;31.50;;
12654;SDS011;6392;44.644;11.448;2024-02-04T07:04:22;50.07;;;30.70;;
12654;SDS011;6392;44.644;11.448;2024-02-04T07:06:50;50.13;;;31.13;;
12654;SDS011;6392;44.644;11.448;2024-02-04T07:09:17;52.27;;;31.10;;
12654;SDS011;6392;44.644;11.448;2024-02-04T07:11:44;46.50;;;30.07;;
12654;SDS011;6392;44.644;11.448;2024-02-04T07:14:12;47.13;;;29.90;;
12654;SDS011;6392;44.644;11.448;2024-02-04T07:16:40;49.47;;;29.77;;
12654;SDS011;6392;44.644;11.448;2024-02-04T07:19:07;44.90;;;27.50;;
12654;SDS011;6392;44.644;11.448;2024-02-04T07:21:34;51.07;;;30.40;;
12654;SDS011;6392;44.644;11.448;2024-02-04T07:24:02;48.10;;;29.57;;
12654;SDS011;6392;44.644;11.448;2024-02-04T07:26:29;50.40;;;29.40;;
12654;SDS011;6392;44.644;11.448;2024-02-04T07:28:56;52.57;;;30.47;;
12654;SDS011;6392;44.644;11.448;2024-02-04T07:31:23;40.83;;;28.93;;
12654;SDS011;6392;44.644;11.448;2024-02-04T07:33:51;43.47;;;28.30;;
12654;SDS011;6392;44.644;11.448;2024-02-04T07:36:18;42.17;;;28.57;;
12654;SDS011;6392;44.644;11.448;2024-02-04T07:38:45;44.67;;;28.87;;
12654;SDS011;6392;44.644;11.448;2024-02-04T07:41:13;41.53;;;28.40;;
12654;SDS011;6392;44.644;11.448;2024-02-04T07:43:41;43.97;;;28.93;;
12654;SDS011;6392;44.644;11.448;2024-02-04T07:46:09;46.53;;;28.57;;
12654;SDS011;6392;44.644;11.448;2024-02-04T07:48:36;42.00;;;28.90;;
12654;SDS011;6392;44.644;11.448;2024-02-04T07:51:04;41.73;;;28.10;;
12654;SDS011;6392;44.644;11.448;2024-02-04T07:53:33;45.00;;;30.33;;
12654;SDS011;6392;44.644;11.448;2024-02-04T07:56:01;39.63;;;28.70;;
12654;SDS011;6392;44.644;11.448;2024-02-04T07:58:28;43.37;;;28.97;;
12654;SDS011;6392;44.644;11.448;2024-02-04T08:00:55;41.33;;;28.83;;
12654;SDS011;6392;44.644;11.448;2024-02-04T08:03:22;40.63;;;28.50;;
12654;SDS011;6392;44.644;11.448;2024-02-04T08:05:49;43.60;;;28.70;;
12654;SDS011;6392;44.644;11.448;2024-02-04T08:08:18;43.33;;;28.40;;
12654;SDS011;6392;44.644;11.448;2024-02-04T08:10:45;39.90;;;28.17;;
12654;SDS011;6392;44.644;11.448;2024-02-04T08:13:12;43.87;;;28.80;;
12654;SDS011;6392;44.644;11.448;2024-02-04T08:15:39;44.73;;;29.23;;
12654;SDS011;6392;44.644;11.448;2024-02-04T08:18:06;42.07;;;29.63;;
12654;SDS011;6392;44.644;11.448;2024-02-04T08:20:33;41.90;;;28.50;;
12654;SDS011;6392;44.644;11.448;2024-02-04T08:23:00;44.83;;;28.90;;
12654;SDS011;6392;44.644;11.448;2024-02-04T08:25:29;42.97;;;29.70;;
12654;SDS011;6392;44.644;11.448;2024-02-04T08:27:57;39.57;;;28.97;;
12654;SDS011;6392;44.644;11.448;2024-02-04T08:30:24;44.67;;;29.77;;
12654;SDS011;6392;44.644;11.448;2024-02-04T08:32:51;43.17;;;29.47;;
12654;SDS011;6392;44.644;11.448;2024-02-04T08:35:18;45.73;;;30.33;;
12654;SDS011;6392;44.644;11.448;2024-02-04T08:37:46;40.40;;;29.13;;
12654;SDS011;6392;44.644;11.448;2024-02-04T08:40:13;43.93;;;30.13;;
12654;SDS011;6392;44.644;11.448;2024-02-04T08:42:42;41.23;;;29.37;;
12654;SDS011;6392;44.644;11.448;2024-02-04T08:45:09;46.07;;;31.50;;
12654;SDS011;6392;44.644;11.448;2024-02-04T08:47:37;49.63;;;33.30;;
12654;SDS011;6392;44.644;11.448;2024-02-04T08:50:04;47.00;;;31.27;;
12654;SDS011;6392;44.644;11.448;2024-02-04T08:52:32;47.97;;;33.00;;
12654;SDS011;6392;44.644;11.448;2024-02-04T08:54:59;56.20;;;35.47;;
12654;SDS011;6392;44.644;11.448;2024-02-04T08:57:29;57.20;;;35.47;;
12654;SDS011;6392;44.644;11.448;2024-02-04T08:59:57;59.47;;;37.10;;
12654;SDS011;6392;44.644;11.448;2024-02-04T09:02:24;64.87;;;38.60;;
12654;SDS011;6392;44.644;11.448;2024-02-04T09:04:51;56.27;;;36.63;;
12654;SDS011;6392;44.644;11.448;2024-02-04T09:07:19;59.37;;;39.10;;
12654;SDS011;6392;44.644;11.448;2024-02-04T09:09:46;61.67;;;39.73;;
12654;SDS011;6392;44.644;11.448;2024-02-04T09:12:13;62.23;;;39.83;;
12654;SDS011;6392;44.644;11.448;2024-02-04T09:14:40;67.60;;;41.27;;
12654;SDS011;6392;44.644;11.448;2024-02-04T09:17:09;66.27;;;42.00;;
12654;SDS011;6392;44.644;11.448;2024-02-04T09:19:38;66.17;;;40.07;;
12654;SDS011;6392;44.644;11.448;2024-02-04T09:22:05;61.80;;;39.43;;
12654;SDS011;6392;44.644;11.448;2024-02-04T09:24:32;62.53;;;40.07;;
12654;SDS011;6392;44.644;11.448;2024-02-04T09:26:59;64.90;;;38.70;;
12654;SDS011;6392;44.644;11.448;2024-02-04T09:29:26;59.27;;;38.10;;
12654;SDS011;6392;44.644;11.448;2024-02-04T09:31:53;58.27;;;37.90;;
12654;SDS011;6392;44.644;11.448;2024-02-04T09:34:22;59.07;;;37.97;;
12654;SDS011;6392;44.644;11.448;2024-02-04T09:36:49;60.07;;;37.03;;
12654;SDS011;6392;44.644;11.448;2024-02-04T09:39:18;56.20;;;34.43;;
12654;SDS011;6392;44.644;11.448;2024-02-04T09:41:45;52.97;;;35.10;;
12654;SDS011;6392;44.644;11.448;2024-02-04T09:44:12;57.97;;;33.93;;
12654;SDS011;6392;44.644;11.448;2024-02-04T09:46:40;54.93;;;34.57;;
12654;SDS011;6392;44.644;11.448;2024-02-04T09:49:07;55.13;;;32.97;;
12654;SDS011;6392;44.644;11.448;2024-02-04T09:51:36;48.33;;;32.83;;
12654;SDS011;6392;44.644;11.448;2024-02-04T09:54:04;49.50;;;30.70;;
12654;SDS011;6392;44.644;11.448;2024-02-04T09:56:35;44.20;;;27.67;;
12654;SDS011;6392;44.644;11.448;2024-02-04T09:59:03;40.97;;;27.03;;
12654;SDS011;6392;44.644;11.448;2024-02-04T10:01:31;46.47;;;28.13;;
12654;SDS011;6392;44.644;11.448;2024-02-04T10:03:58;36.43;;;25.93;;
12654;SDS011;6392;44.644;11.448;2024-02-04T10:06:25;39.97;;;26.67;;
12654;SDS011;6392;44.644;11.448;2024-02-04T10:08:54;37.40;;;25.47;;
12654;SDS011;6392;44.644;11.448;2024-02-04T10:11:21;40.33;;;25.80;;
12654;SDS011;6392;44.644;11.448;2024-02-04T10:13:49;37.33;;;25.77;;
12654;SDS011;6392;44.644;11.448;2024-02-04T10:16:16;36.50;;;26.40;;
12654;SDS011;6392;44.644;11.448;2024-02-04T10:18:44;39.70;;;25.23;;
12654;SDS011;6392;44.644;11.448;2024-02-04T10:21:15;36.27;;;24.73;;
12654;SDS011;6392;44.644;11.448;2024-02-04T10:23:43;37.77;;;25.80;;
12654;SDS011;6392;44.644;11.448;2024-02-04T10:26:12;37.80;;;25.50;;
12654;SDS011;6392;44.644;11.448;2024-02-04T10:28:39;35.63;;;25.53;;
12654;SDS011;6392;44.644;11.448;2024-02-04T10:31:08;37.37;;;24.23;;
12654;SDS011;6392;44.644;11.448;2024-02-04T10:33:36;36.60;;;24.20;;
12654;SDS011;6392;44.644;11.448;2024-02-04T10:36:03;37.37;;;24.97;;
12654;SDS011;6392;44.644;11.448;2024-02-04T10:38:31;40.83;;;27.43;;
12654;SDS011;6392;44.644;11.448;2024-02-04T10:40:59;43.03;;;27.87;;
12654;SDS011;6392;44.644;11.448;2024-02-04T10:43:30;41.43;;;27.40;;
12654;SDS011;6392;44.644;11.448;2024-02-04T10:46:01;41.50;;;27.27;;
12654;SDS011;6392;44.644;11.448;2024-02-04T10:48:36;44.40;;;29.37;;
12654;SDS011;6392;44.644;11.448;2024-02-04T10:51:11;46.43;;;30.70;;
12654;SDS011;6392;44.644;11.448;2024-02-04T10:53:41;44.33;;;29.80;;
12654;SDS011;6392;44.644;11.448;2024-02-04T10:56:10;49.03;;;29.73;;
12654;SDS011;6392;44.644;11.448;2024-02-04T10:58:44;46.50;;;28.90;;
12654;SDS011;6392;44.644;11.448;2024-02-04T11:01:12;42.40;;;29.27;;
12654;SDS011;6392;44.644;11.448;2024-02-04T11:03:41;41.50;;;28.03;;
12654;SDS011;6392;44.644;11.448;2024-02-04T11:06:08;48.57;;;31.13;;
12654;SDS011;6392;44.644;11.448;2024-02-04T11:08:37;50.57;;;31.63;;
12654;SDS011;6392;44.644;11.448;2024-02-04T11:11:05;44.33;;;31.27;;
12654;SDS011;6392;44.644;11.448;2024-02-04T11:13:32;49.00;;;30.63;;
12654;SDS011;6392;44.644;11.448;2024-02-04T11:16:04;50.40;;;30.43;;
12654;SDS011;6392;44.644;11.448;2024-02-04T11:18:52;46.77;;;29.40;;
12654;SDS011;6392;44.644;11.448;2024-02-04T11:21:38;44.40;;;29.53;;
12654;SDS011;6392;44.644;11.448;2024-02-04T11:24:25;43.60;;;29.73;;
12654;SDS011;6392;44.644;11.448;2024-02-04T11:27:02;43.30;;;28.00;;
12654;SDS011;6392;44.644;11.448;2024-02-04T11:29:29;43.07;;;28.13;;
12654;SDS011;6392;44.644;11.448;2024-02-04T11:31:58;40.93;;;27.27;;
12654;SDS011;6392;44.644;11.448;2024-02-04T11:34:25;44.50;;;26.40;;
12654;SDS011;6392;44.644;11.448;2024-02-04T11:36:52;38.43;;;26.50;;
12654;SDS011;6392;44.644;11.448;2024-02-04T11:39:19;38.10;;;25.80;;
12654;SDS011;6392;44.644;11.448;2024-02-04T11:41:47;40.10;;;26.33;;
12654;SDS011;6392;44.644;11.448;2024-02-04T11:44:19;40.20;;;25.20;;
12654;SDS011;6392;44.644;11.448;2024-02-04T11:46:48;41.47;;;24.43;;
12654;SDS011;6392;44.644;11.448;2024-02-04T11:49:16;37.07;;;24.13;;
12654;SDS011;6392;44.644;11.448;2024-02-04T11:51:45;38.73;;;25.30;;
12654;SDS011;6392;44.644;11.448;2024-02-04T11:54:14;39.30;;;25.30;;
12654;SDS011;6392;44.644;11.448;2024-02-04T11:56:43;33.20;;;22.27;;
12654;SDS011;6392;44.644;11.448;2024-02-04T11:59:11;39.53;;;23.60;;
12654;SDS011;6392;44.644;11.448;2024-02-04T12:01:39;36.00;;;24.57;;
12654;SDS011;6392;44.644;11.448;2024-02-04T12:04:10;32.63;;;21.40;;
12654;SDS011;6392;44.644;11.448;2024-02-04T12:06:40;30.90;;;20.80;;
12654;SDS011;6392;44.644;11.448;2024-02-04T12:09:08;34.70;;;23.70;;
12654;SDS011;6392;44.644;11.448;2024-02-04T12:11:35;32.47;;;23.57;;
12654;SDS011;6392;44.644;11.448;2024-02-04T12:14:04;36.27;;;24.33;;
12654;SDS011;6392;44.644;11.448;2024-02-04T12:16:33;33.57;;;23.63;;
12654;SDS011;6392;44.644;11.448;2024-02-04T12:19:01;32.77;;;22.60;;
12654;SDS011;6392;44.644;11.448;2024-02-04T12:21:29;38.03;;;23.83;;
12654;SDS011;6392;44.644;11.448;2024-02-04T12:23:58;39.00;;;23.10;;
12654;SDS011;6392;44.644;11.448;2024-02-04T12:26:26;37.40;;;23.57;;
12654;SDS011;6392;44.644;11.448;2024-02-04T12:28:53;35.03;;;23.70;;
12654;SDS011;6392;44.644;11.448;2024-02-04T12:31:21;35.80;;;22.33;;
12654;SDS011;6392;44.644;11.448;2024-02-04T12:33:53;34.10;;;22.17;;
12654;SDS011;6392;44.644;11.448;2024-02-04T12:36:23;35.30;;;23.30;;
12654;SDS011;6392;44.644;11.448;2024-02-04T12:38:52;33.93;;;22.70;;
12654;SDS011;6392;44.644;11.448;2024-02-04T12:41:21;38.27;;;23.80;;
12654;SDS011;6392;44.644;11.448;2024-02-04T12:43:49;37.80;;;25.37;;
12654;SDS011;6392;44.644;11.448;2024-02-04T12:46:17;38.07;;;26.27;;
12654;SDS011;6392;44.644;11.448;2024-02-04T12:48:45;40.37;;;26.70;;
12654;SDS011;6392;44.644;11.448;2024-02-04T12:51:22;36.77;;;26.40;;
12654;SDS011;6392;44.644;11.448;2024-02-04T12:53:50;38.20;;;25.00;;
12654;SDS011;6392;44.644;11.448;2024-02-04T12:56:40;37.43;;;26.33;;
12654;SDS011;6392;44.644;11.448;2024-02-04T12:59:08;35.60;;;25.40;;
12654;SDS011;6392;44.644;11.448;2024-02-04T13:01:35;40.40;;;25.80;;
12654;SDS011;6392;44.644;11.448;2024-02-04T13:04:03;38.57;;;26.07;;
12654;SDS011;6392;44.644;11.448;2024-02-04T13:06:30;43.77;;;27.00;;
12654;SDS011;6392;44.644;11.448;2024-02-04T13:08:57;42.33;;;28.57;;
12654;SDS011;6392;44.644;11.448;2024-02-04T13:11:25;44.63;;;28.73;;
12654;SDS011;6392;44.644;11.448;2024-02-04T13:13:54;48.67;;;32.07;;
12654;SDS011;6392;44.644;11.448;2024-02-04T13:16:21;50.43;;;33.00;;
12654;SDS011;6392;44.644;11.448;2024-02-04T13:18:51;48.93;;;31.43;;
12654;SDS011;6392;44.644;11.448;2024-02-04T13:21:19;54.60;;;34.30;;
12654;SDS011;6392;44.644;11.448;2024-02-04T13:23:47;49.00;;;32.77;;
12654;SDS011;6392;44.644;11.448;2024-02-04T13:26:14;50.67;;;35.57;;
12654;SDS011;6392;44.644;11.448;2024-02-04T13:28:42;57.00;;;36.30;;
12654;SDS011;6392;44.644;11.448;2024-02-04T13:31:11;54.17;;;36.20;;
12654;SDS011;6392;44.644;11.448;2024-02-04T13:33:38;48.80;;;32.73;;
12654;SDS011;6392;44.644;11.448;2024-02-04T13:36:05;48.77;;;33.63;;
12654;SDS011;6392;44.644;11.448;2024-02-04T13:38:33;56.00;;;35.60;;
12654;SDS011;6392;44.644;11.448;2024-02-04T13:41:00;52.10;;;34.83;;
12654;SDS011;6392;44.644;11.448;2024-02-04T13:43:29;52.40;;;35.77;;
12654;SDS011;6392;44.644;11.448;2024-02-04T13:45:56;53.90;;;36.63;;
12654;SDS011;6392;44.644;11.448;2024-02-04T13:48:24;53.30;;;34.80;;
12654;SDS011;6392;44.644;11.448;2024-02-04T13:50:51;53.50;;;34.77;;
12654;SDS011;6392;44.644;11.448;2024-02-04T13:53:19;54.73;;;36.13;;
12654;SDS011;6392;44.644;11.448;2024-02-04T13:55:46;51.60;;;34.87;;
12654;SDS011;6392;44.644;11.448;2024-02-04T13:58:13;56.37;;;37.20;;
12654;SDS011;6392;44.644;11.448;2024-02-04T14:00:43;53.87;;;35.43;;
12654;SDS011;6392;44.644;11.448;2024-02-04T14:03:10;48.90;;;35.27;;
12654;SDS011;6392;44.644;11.448;2024-02-04T14:05:39;52.13;;;35.23;;
12654;SDS011;6392;44.644;11.448;2024-02-04T14:08:07;49.77;;;34.17;;
12654;SDS011;6392;44.644;11.448;2024-02-04T14:10:34;55.10;;;36.53;;
12654;SDS011;6392;44.644;11.448;2024-02-04T14:13:01;54.37;;;37.00;;
12654;SDS011;6392;44.644;11.448;2024-02-04T14:15:30;56.47;;;38.23;;
12654;SDS011;6392;44.644;11.448;2024-02-04T14:17:57;54.37;;;38.47;;
12654;SDS011;6392;44.644;11.448;2024-02-04T14:20:24;54.97;;;37.90;;
12654;SDS011;6392;44.644;11.448;2024-02-04T14:22:53;53.77;;;37.20;;
12654;SDS011;6392;44.644;11.448;2024-02-04T14:25:21;57.87;;;36.90;;